Time;durP1;ratioP1;P1;durP2;ratioP2;P2;SDS_P1;SDS_P2;PMS_P1;PMS_P2;Temp;Humidity;BMP_temperature;BMP_pressure;BME280_temperature;BME280_humidity;BME280_pressure;Samples;Min_cycle;Max_cycle;Signal;HPM_P1;HPM_P2
2022/04/13 00:01:01;;;;;;;4.93;1.83;;;18.70;99.90;;;;;;5070154;22;20056;-79
2022/04/13 00:03:28;;;;;;;14.07;2.75;;;18.70;99.90;;;;;;5016883;28;20450;-76
2022/04/13 00:05:56;;;;;;;6.15;1.17;;;18.70;99.90;;;;;;5034245;28;20497;-79
2022/04/13 00:08:23;;;;;;;7.35;1.23;;;18.70;99.90;;;;;;5039894;28;20056;-78
2022/04/13 00:10:50;;;;;;;4.82;1.55;;;18.70;99.90;;;;;;5036791;28;20034;-75
2022/04/13 00:13:18;;;;;;;4.72;1.27;;;18.70;99.90;;;;;;5038598;28;20394;-77
2022/04/13 00:15:48;;;;;;;6.82;1.55;;;18.90;99.90;;;;;;5036750;28;20107;-79
2022/04/13 00:18:15;;;;;;;8.52;1.13;;;19.00;99.90;;;;;;5038316;28;20381;-76
2022/04/13 00:20:46;;;;;;;5.63;1.40;;;19.50;99.90;;;;;;5037355;28;20026;-78
2022/04/13 00:23:13;;;;;;;6.22;1.30;;;19.80;99.90;;;;;;5035711;28;20009;-78
2022/04/13 00:25:44;;;;;;;7.68;0.98;;;20.10;99.90;;;;;;5038982;28;20119;-79
2022/04/13 00:28:11;;;;;;;5.53;1.10;;;20.10;99.90;;;;;;5038290;28;20029;-78
2022/04/13 00:30:39;;;;;;;8.45;0.95;;;20.30;99.90;;;;;;5019100;28;20049;-76
2022/04/13 00:33:09;;;;;;;6.57;1.15;;;20.50;99.90;;;;;;5036941;28;20028;-78
2022/04/13 00:35:37;;;;;;;4.30;1.20;;;20.60;99.90;;;;;;5028652;28;20097;-78
2022/04/13 00:38:05;;;;;;;7.65;1.10;;;20.70;99.90;;;;;;5013625;28;20033;-78
2022/04/13 00:40:36;;;;;;;8.68;1.27;;;20.70;99.90;;;;;;5035159;28;20026;-80
2022/04/13 00:43:03;;;;;;;8.00;0.93;;;20.90;99.90;;;;;;5034212;28;20026;-74
2022/04/13 00:45:30;;;;;;;4.53;0.88;;;20.90;99.90;;;;;;5012158;28;20073;-73
2022/04/13 00:47:59;;;;;;;3.88;0.90;;;20.50;99.90;;;;;;5029105;28;20059;-73
2022/04/13 00:50:26;;;;;;;7.88;0.98;;;20.20;99.90;;;;;;5031777;28;20021;-74
2022/04/13 00:52:58;;;;;;;4.90;0.65;;;20.00;99.90;;;;;;5032387;28;20033;-73
2022/04/13 00:55:27;;;;;;;4.68;1.30;;;19.90;99.90;;;;;;4996952;28;20030;-73
2022/04/13 00:57:58;;;;;;;6.35;0.70;;;20.10;99.90;;;;;;5016950;28;20498;-74
2022/04/13 01:00:25;;;;;;;2.83;1.00;;;20.30;99.90;;;;;;5010105;28;20049;-75
2022/04/13 01:02:55;;;;;;;6.93;1.17;;;20.10;99.90;;;;;;5066483;22;20417;-74
2022/04/13 01:05:22;;;;;;;3.70;0.60;;;20.50;99.90;;;;;;5057791;22;20044;-73
2022/04/13 01:07:51;;;;;;;8.20;1.15;;;20.90;99.90;;;;;;5049832;28;20480;-74
2022/04/13 01:10:19;;;;;;;6.18;0.60;;;20.80;99.90;;;;;;5039909;28;20038;-73
2022/04/13 01:12:46;;;;;;;6.55;2.00;;;20.80;99.90;;;;;;5057591;23;20416;-72
2022/04/13 01:15:14;;;;;;;4.65;0.85;;;21.10;99.90;;;;;;5050563;28;20028;-72
2022/04/13 01:17:43;;;;;;;3.03;0.70;;;21.50;99.90;;;;;;5051091;28;20055;-71
2022/04/13 01:20:11;;;;;;;3.78;0.80;;;21.20;99.90;;;;;;5057581;23;20056;-79
2022/04/13 01:22:39;;;;;;;5.82;1.15;;;21.60;99.90;;;;;;5049756;28;20033;-77
2022/04/13 01:25:07;;;;;;;12.27;1.17;;;21.40;99.90;;;;;;5036265;28;20025;-77
2022/04/13 01:27:34;;;;;;;4.15;1.13;;;21.40;99.90;;;;;;5054999;28;20036;-80
2022/04/13 01:30:05;;;;;;;3.70;1.40;;;21.40;99.90;;;;;;5054470;28;20128;-78
2022/04/13 01:32:33;;;;;;;6.53;1.48;;;20.80;99.90;;;;;;5052302;28;20029;-80
2022/04/13 01:35:00;;;;;;;4.70;0.70;;;20.50;99.90;;;;;;5048562;28;20021;-78
2022/04/13 01:37:28;;;;;;;4.43;0.95;;;20.20;99.90;;;;;;5054260;28;20033;-80
2022/04/13 01:39:55;;;;;;;2.63;0.63;;;20.20;99.90;;;;;;5046115;23;20137;-77
2022/04/13 01:42:22;;;;;;;3.47;0.57;;;20.50;99.90;;;;;;5051046;28;20080;-79
2022/04/13 01:44:50;;;;;;;2.47;0.77;;;20.90;99.90;;;;;;5044729;28;20025;-78
2022/04/13 01:47:17;;;;;;;3.08;0.65;;;21.00;99.90;;;;;;5035291;28;20393;-78
2022/04/13 01:49:44;;;;;;;2.88;0.75;;;20.70;99.90;;;;;;5053949;28;20021;-79
2022/04/13 01:52:12;;;;;;;5.25;1.10;;;20.50;99.90;;;;;;5052592;28;20029;-78
2022/04/13 01:54:39;;;;;;;3.78;0.70;;;20.60;99.90;;;;;;5049244;28;20022;-79
2022/04/13 01:57:07;;;;;;;3.60;0.93;;;20.50;99.90;;;;;;5053570;28;20051;-79
2022/04/13 01:59:34;;;;;;;2.72;1.00;;;20.70;99.90;;;;;;5054730;28;20033;-80
2022/04/13 02:02:04;;;;;;;6.50;1.33;;;21.60;99.90;;;;;;5052128;28;20564;-80
2022/04/13 02:04:32;;;;;;;3.72;0.75;;;21.40;99.90;;;;;;5054142;28;20024;-79
2022/04/13 02:07:00;;;;;;;5.28;1.08;;;21.40;99.90;;;;;;5052119;28;20029;-79
2022/04/13 02:09:27;;;;;;;4.43;1.48;;;21.50;99.90;;;;;;5034684;28;20037;-81
2022/04/13 02:11:54;;;;;;;6.38;1.05;;;22.00;99.90;;;;;;5054180;28;20036;-81
2022/04/13 02:14:21;;;;;;;3.70;0.88;;;22.00;99.90;;;;;;5052915;28;20485;-79
2022/04/13 02:16:49;;;;;;;3.13;0.88;;;22.10;99.90;;;;;;5051659;28;20017;-79
2022/04/13 02:19:17;;;;;;;2.97;0.50;;;22.30;99.90;;;;;;5049476;28;20033;-79
2022/04/13 02:21:44;;;;;;;2.28;0.63;;;21.60;99.90;;;;;;5049864;28;20025;-79
2022/04/13 02:24:11;;;;;;;3.38;1.08;;;21.10;99.90;;;;;;5052777;28;20057;-80
2022/04/13 02:26:38;;;;;;;4.68;0.70;;;20.80;99.90;;;;;;5054979;28;20025;-81
2022/04/13 02:29:06;;;;;;;2.53;0.75;;;20.90;99.90;;;;;;5068010;28;20029;-80
2022/04/13 02:31:33;;;;;;;2.47;0.55;;;21.00;99.90;;;;;;5051966;28;20021;-80
2022/04/13 02:34:03;;;;;;;3.65;0.63;;;21.30;99.90;;;;;;5032841;22;20025;-80
2022/04/13 02:36:32;;;;;;;2.28;0.52;;;21.70;99.90;;;;;;5015264;28;20041;-80
2022/04/13 02:38:59;;;;;;;1.13;0.40;;;21.70;99.90;;;;;;5034534;28;20447;-80
2022/04/13 02:41:27;;;;;;;1.33;0.30;;;21.20;99.90;;;;;;5033214;28;20041;-79
2022/04/13 02:43:54;;;;;;;2.28;0.50;;;21.00;99.90;;;;;;5036965;28;20044;-80
2022/04/13 02:46:21;;;;;;;4.32;0.85;;;21.20;99.90;;;;;;5036250;28;20038;-80
2022/04/13 02:48:48;;;;;;;2.33;0.65;;;21.60;99.90;;;;;;5029634;28;20503;-75
2022/04/13 02:51:16;;;;;;;1.83;0.40;;;21.20;99.90;;;;;;5032408;28;20025;-74
2022/04/13 02:53:43;;;;;;;3.75;0.85;;;21.40;99.90;;;;;;5023646;28;20029;-74
2022/04/13 02:56:10;;;;;;;4.05;0.50;;;21.40;99.90;;;;;;5036733;28;20082;-74
2022/04/13 02:58:38;;;;;;;2.17;0.98;;;21.20;99.90;;;;;;5050721;28;20053;-73
2022/04/13 03:01:06;;;;;;;2.85;0.75;;;21.10;99.90;;;;;;5053353;28;20103;-76
2022/04/13 03:03:34;;;;;;;2.60;0.43;;;20.70;99.90;;;;;;5048782;28;20021;-74
2022/04/13 03:06:01;;;;;;;2.78;0.73;;;20.70;99.90;;;;;;5029326;28;20036;-74
2022/04/13 03:08:28;;;;;;;2.33;0.80;;;20.80;99.90;;;;;;5048281;28;20021;-75
2022/04/13 03:10:56;;;;;;;3.55;0.70;;;21.00;99.90;;;;;;5047522;28;20397;-75
2022/04/13 03:13:23;;;;;;;6.22;0.80;;;21.30;99.90;;;;;;5048198;28;20028;-76
2022/04/13 03:15:51;;;;;;;4.53;1.10;;;21.30;99.90;;;;;;5043162;28;20021;-76
2022/04/13 03:18:18;;;;;;;7.35;1.38;;;21.50;99.90;;;;;;5047572;28;20025;-75
2022/04/13 03:20:45;;;;;;;3.22;0.60;;;21.40;99.90;;;;;;5039732;28;20033;-75
2022/04/13 03:23:12;;;;;;;4.00;0.90;;;20.70;99.90;;;;;;5050017;28;20033;-75
2022/04/13 03:25:40;;;;;;;3.20;0.82;;;20.60;99.90;;;;;;5045307;28;20112;-75
2022/04/13 03:28:07;;;;;;;7.90;1.17;;;20.00;99.90;;;;;;5046055;28;20079;-76
2022/04/13 03:30:34;;;;;;;4.18;0.73;;;19.90;99.90;;;;;;5053276;28;20104;-77
2022/04/13 03:33:02;;;;;;;5.63;0.80;;;19.80;99.90;;;;;;5045915;28;20508;-75
2022/04/13 03:35:29;;;;;;;3.20;0.52;;;19.60;99.90;;;;;;5046195;23;20068;-76
2022/04/13 03:37:56;;;;;;;2.90;0.57;;;19.40;99.90;;;;;;5011083;28;20041;-76
2022/04/13 03:40:24;;;;;;;3.67;1.17;;;19.40;99.90;;;;;;5030887;28;20108;-77
2022/04/13 03:42:51;;;;;;;2.15;0.50;;;19.20;99.90;;;;;;5008003;28;20053;-78
2022/04/13 03:45:18;;;;;;;5.15;1.20;;;19.30;99.90;;;;;;5019829;28;20057;-77
2022/04/13 03:47:46;;;;;;;4.50;1.30;;;19.40;99.90;;;;;;5030116;28;20071;-77
2022/04/13 03:50:13;;;;;;;5.60;1.00;;;19.60;99.90;;;;;;5031172;28;20021;-75
2022/04/13 03:52:40;;;;;;;4.30;0.70;;;19.80;99.90;;;;;;5028573;28;20124;-76
2022/04/13 03:55:09;;;;;;;4.15;1.33;;;19.90;99.90;;;;;;5015798;28;20041;-76
2022/04/13 03:57:37;;;;;;;4.82;1.00;;;20.00;99.90;;;;;;5028836;28;20079;-76
2022/04/13 04:00:06;;;;;;;1.83;0.60;;;19.90;99.90;;;;;;5030417;28;20029;-75
2022/04/13 04:02:40;;;;;;;5.75;0.80;;;20.00;99.90;;;;;;5056269;23;20060;-76
2022/04/13 04:05:08;;;;;;;7.15;1.30;;;20.10;99.90;;;;;;5049054;28;20517;-76
2022/04/13 04:07:35;;;;;;;9.10;1.38;;;19.90;99.90;;;;;;5050029;22;20058;-77
2022/04/13 04:10:03;;;;;;;6.65;0.68;;;20.00;99.90;;;;;;5025808;28;20048;-76
2022/04/13 04:12:36;;;;;;;6.03;0.80;;;20.00;99.90;;;;;;5040062;22;20057;-76
2022/04/13 04:15:03;;;;;;;3.13;0.85;;;20.00;99.90;;;;;;5026481;28;20165;-74
2022/04/13 04:17:30;;;;;;;2.03;0.77;;;19.70;99.90;;;;;;5025246;28;20033;-75
2022/04/13 04:19:58;;;;;;;2.97;0.88;;;19.50;99.90;;;;;;5043309;23;20049;-76
2022/04/13 04:22:26;;;;;;;6.10;1.40;;;19.60;99.90;;;;;;5009686;28;20022;-74
2022/04/13 04:24:53;;;;;;;2.78;0.70;;;19.90;99.90;;;;;;5009136;28;20031;-74
2022/04/13 04:27:21;;;;;;;2.70;0.68;;;19.70;99.90;;;;;;5001150;28;20578;-74
2022/04/13 04:29:48;;;;;;;6.22;1.52;;;19.50;99.90;;;;;;5021238;28;20410;-75
2022/04/13 04:32:15;;;;;;;4.32;0.68;;;19.40;99.90;;;;;;5001141;28;20682;-75
2022/04/13 04:34:42;;;;;;;5.63;1.00;;;19.30;99.90;;;;;;5012604;28;20038;-75
2022/04/13 04:37:10;;;;;;;3.35;0.80;;;19.20;99.90;;;;;;5017455;23;20084;-75
2022/04/13 04:39:37;;;;;;;2.72;0.90;;;19.10;99.90;;;;;;5013386;28;20006;-76
2022/04/13 04:42:05;;;;;;;4.70;0.75;;;19.10;99.90;;;;;;4995934;28;20088;-76
2022/04/13 04:44:32;;;;;;;1.92;0.63;;;19.10;99.90;;;;;;5026848;28;20030;-74
2022/04/13 04:47:00;;;;;;;1.77;0.55;;;19.10;99.90;;;;;;5010618;28;20034;-75
2022/04/13 04:49:27;;;;;;;5.35;1.15;;;19.10;99.90;;;;;;5010951;28;20033;-74
2022/04/13 04:51:54;;;;;;;3.83;1.05;;;19.10;99.90;;;;;;5015317;28;20036;-75
2022/04/13 04:54:21;;;;;;;6.50;1.17;;;19.20;99.90;;;;;;5021118;28;20022;-74
2022/04/13 04:56:49;;;;;;;2.20;0.68;;;19.30;99.90;;;;;;5026741;28;20083;-74
2022/04/13 04:59:16;;;;;;;1.38;0.40;;;19.40;99.90;;;;;;5015672;28;20616;-75
2022/04/13 05:01:43;;;;;;;2.80;0.93;;;19.30;99.90;;;;;;5027113;28;20116;-75
2022/04/13 05:04:11;;;;;;;0.82;0.40;;;19.20;99.90;;;;;;5013039;28;20032;-75
2022/04/13 05:06:38;;;;;;;2.03;0.43;;;19.20;99.90;;;;;;5030305;28;20421;-74
2022/04/13 05:09:06;;;;;;;1.05;0.30;;;19.50;99.90;;;;;;5032199;28;20030;-73
2022/04/13 05:11:33;;;;;;;2.15;0.40;;;19.30;99.90;;;;;;5035107;28;20026;-73
2022/04/13 05:14:00;;;;;;;3.20;0.20;;;19.10;99.90;;;;;;5056619;23;20081;-75
2022/04/13 05:16:27;;;;;;;1.10;0.50;;;19.40;99.90;;;;;;5050623;28;20029;-74
2022/04/13 05:18:55;;;;;;;2.78;0.60;;;19.60;99.90;;;;;;5050958;28;20389;-74
2022/04/13 05:21:22;;;;;;;2.47;0.68;;;19.60;99.90;;;;;;5025199;28;20036;-74
2022/04/13 05:23:49;;;;;;;2.92;0.60;;;19.30;99.90;;;;;;5036787;28;20108;-76
2022/04/13 05:26:18;;;;;;;3.25;0.88;;;19.00;99.90;;;;;;5049751;28;20031;-75
2022/04/13 05:28:49;;;;;;;1.38;0.50;;;19.00;99.90;;;;;;5029877;28;20032;-74
2022/04/13 05:31:16;;;;;;;1.40;0.60;;;18.90;99.90;;;;;;5048580;28;20581;-74
2022/04/13 05:33:44;;;;;;;2.30;0.60;;;18.90;99.90;;;;;;5046850;28;20024;-74
2022/04/13 05:36:11;;;;;;;3.63;0.57;;;18.80;99.90;;;;;;5052044;28;20124;-74
2022/04/13 05:38:40;;;;;;;1.95;0.50;;;18.80;99.90;;;;;;5027104;28;20029;-74
2022/04/13 05:41:07;;;;;;;3.53;0.68;;;18.60;99.90;;;;;;5051628;28;20020;-75
2022/04/13 05:43:36;;;;;;;5.07;0.73;;;18.40;99.90;;;;;;5048772;28;20481;-75
2022/04/13 05:46:03;;;;;;;4.38;1.27;;;18.10;99.90;;;;;;5030503;28;20036;-75
2022/04/13 05:48:31;;;;;;;3.30;1.27;;;17.90;99.90;;;;;;5048268;28;20040;-72
2022/04/13 05:50:59;;;;;;;3.70;1.10;;;17.70;99.90;;;;;;5052832;28;20032;-72
2022/04/13 05:53:27;;;;;;;6.05;0.90;;;17.60;99.90;;;;;;5047942;28;20103;-73
2022/04/13 05:55:56;;;;;;;2.78;1.10;;;17.60;99.90;;;;;;5031650;28;20048;-75
2022/04/13 05:58:26;;;;;;;2.10;0.60;;;17.50;99.90;;;;;;5035442;28;20036;-72
2022/04/13 06:00:54;;;;;;;2.30;1.00;;;17.40;99.90;;;;;;5031115;28;20418;-74
2022/04/13 06:03:23;;;;;;;2.08;0.80;;;17.40;99.90;;;;;;5026673;28;20109;-75
2022/04/13 06:05:51;;;;;;;3.60;1.13;;;17.30;99.90;;;;;;5031168;28;20108;-74
2022/04/13 06:08:19;;;;;;;4.47;1.30;;;17.30;99.90;;;;;;5036623;28;20021;-74
2022/04/13 06:10:46;;;;;;;4.80;0.85;;;17.30;99.90;;;;;;5014910;28;20053;-73
2022/04/13 06:13:14;;;;;;;5.13;0.98;;;17.40;99.90;;;;;;5035279;28;20049;-73
2022/04/13 06:15:43;;;;;;;3.10;1.60;;;17.50;99.90;;;;;;5058607;22;20508;-73
2022/04/13 06:18:10;;;;;;;3.28;1.00;;;17.40;99.90;;;;;;5062790;28;20028;-72
2022/04/13 06:20:37;;;;;;;4.10;0.77;;;17.40;99.90;;;;;;5048110;28;20038;-72
2022/04/13 06:23:04;;;;;;;3.80;0.75;;;17.50;99.90;;;;;;5051587;28;20082;-72
2022/04/13 06:25:32;;;;;;;3.25;0.57;;;17.50;99.90;;;;;;5063745;28;20025;-72
2022/04/13 06:27:59;;;;;;;2.42;1.42;;;17.50;99.90;;;;;;5050071;28;20029;-72
2022/04/13 06:30:27;;;;;;;4.72;1.70;;;17.50;99.90;;;;;;5069099;28;20029;-72
2022/04/13 06:32:54;;;;;;;2.38;0.98;;;17.60;99.90;;;;;;5074944;28;20024;-72
2022/04/13 06:35:23;;;;;;;3.85;1.10;;;17.60;99.90;;;;;;5053220;28;20039;-72
2022/04/13 06:37:50;;;;;;;2.25;0.63;;;17.70;99.90;;;;;;5072170;28;20238;-72
2022/04/13 06:40:17;;;;;;;3.25;0.50;;;17.60;99.90;;;;;;5053724;28;20024;-72
2022/04/13 06:42:45;;;;;;;2.40;0.93;;;17.50;99.90;;;;;;5069431;28;20031;-72
2022/04/13 06:45:14;;;;;;;3.63;1.00;;;17.50;99.90;;;;;;5072992;28;20017;-72
2022/04/13 06:47:42;;;;;;;3.05;0.70;;;17.70;99.90;;;;;;5062955;28;20553;-72
2022/04/13 06:50:11;;;;;;;2.75;1.23;;;17.80;99.90;;;;;;5072401;28;20055;-72
2022/04/13 06:52:39;;;;;;;4.35;0.98;;;17.70;99.90;;;;;;5068094;28;20033;-72
2022/04/13 06:55:10;;;;;;;1.88;0.70;;;17.50;99.90;;;;;;5071960;28;20025;-72
2022/04/13 06:57:39;;;;;;;3.47;0.63;;;17.40;99.90;;;;;;5043816;28;20035;-72
2022/04/13 07:00:09;;;;;;;4.13;1.10;;;17.50;99.90;;;;;;5049630;28;20115;-72
2022/04/13 07:02:37;;;;;;;3.95;0.88;;;17.40;99.90;;;;;;5067652;28;20021;-72
2022/04/13 07:05:04;;;;;;;3.78;0.70;;;17.40;99.90;;;;;;5069771;28;20016;-71
2022/04/13 07:07:32;;;;;;;6.25;1.67;;;17.40;99.90;;;;;;5070247;28;20400;-71
2022/04/13 07:09:59;;;;;;;4.63;1.17;;;17.40;99.90;;;;;;5067280;28;20036;-71
2022/04/13 07:12:35;;;;;;;2.20;1.20;;;17.40;99.90;;;;;;5047629;28;20111;-71
2022/04/13 07:15:03;;;;;;;3.15;0.65;;;17.40;99.90;;;;;;5071629;28;20078;-71
2022/04/13 07:17:31;;;;;;;3.33;0.60;;;17.30;99.90;;;;;;5072243;28;20052;-70
2022/04/13 07:19:58;;;;;;;3.38;0.65;;;17.20;99.90;;;;;;5061567;22;20140;-72
2022/04/13 07:22:25;;;;;;;2.42;0.50;;;17.20;99.90;;;;;;5048752;28;20476;-72
2022/04/13 07:24:53;;;;;;;2.13;0.40;;;17.10;99.90;;;;;;5043198;28;20115;-75
2022/04/13 07:27:20;;;;;;;3.28;0.60;;;17.00;99.90;;;;;;5051429;28;20032;-79
2022/04/13 07:32:14;;;;;;;4.50;0.90;;;17.00;99.90;;;;;;5029063;28;20053;-79
2022/04/13 07:34:42;;;;;;;4.97;0.90;;;17.00;99.90;;;;;;5033091;28;20377;-79
2022/04/13 07:37:09;;;;;;;5.55;0.75;;;16.90;99.90;;;;;;5088465;23;20048;-78
2022/04/13 07:39:36;;;;;;;3.33;0.60;;;16.90;99.90;;;;;;5054786;28;20069;-76
2022/04/13 07:42:04;;;;;;;2.58;0.60;;;16.80;99.90;;;;;;5065571;28;20107;-79
2022/04/13 07:44:31;;;;;;;1.48;0.63;;;16.80;99.90;;;;;;5069262;28;20020;-78
2022/04/13 07:46:58;;;;;;;1.90;0.63;;;16.70;99.90;;;;;;5053285;28;20056;-78
2022/04/13 07:49:25;;;;;;;3.53;0.60;;;16.80;99.90;;;;;;5060339;28;20392;-78
2022/04/13 07:51:53;;;;;;;3.85;1.38;;;16.80;99.90;;;;;;5071072;28;20070;-81
2022/04/13 07:54:24;;;;;;;3.55;1.15;;;16.80;99.90;;;;;;5071606;28;20118;-81
2022/04/13 07:56:51;;;;;;;3.70;0.80;;;16.90;99.90;;;;;;5064741;28;20131;-80
2022/04/13 07:59:18;;;;;;;7.32;1.02;;;16.90;99.90;;;;;;5073066;28;20036;-77
2022/04/13 08:01:45;;;;;;;5.63;1.00;;;17.00;99.90;;;;;;5073608;28;20087;-80
2022/04/13 08:04:13;;;;;;;4.05;0.88;;;16.90;99.90;;;;;;5077095;28;20063;-80
2022/04/13 08:06:40;;;;;;;1.55;0.40;;;16.90;99.90;;;;;;5081440;28;20381;-80
2022/04/13 08:09:07;;;;;;;3.13;0.52;;;16.90;99.90;;;;;;5074827;28;20024;-79
2022/04/13 08:11:34;;;;;;;7.13;0.88;;;16.80;99.90;;;;;;5067271;28;20162;-80
2022/04/13 08:14:02;;;;;;;4.18;1.20;;;16.80;99.90;;;;;;5066336;28;20031;-80
2022/04/13 08:16:29;;;;;;;6.93;1.63;;;16.80;99.90;;;;;;5075808;28;20055;-80
2022/04/13 08:18:56;;;;;;;3.25;0.60;;;16.80;99.90;;;;;;5071897;28;20028;-79
2022/04/13 08:21:23;;;;;;;5.18;0.80;;;16.80;99.90;;;;;;5074935;28;20028;-79
2022/04/13 08:23:51;;;;;;;5.93;1.70;;;16.80;99.90;;;;;;5076397;28;20036;-78
2022/04/13 08:26:18;;;;;;;2.83;1.05;;;16.80;99.90;;;;;;5071890;28;20381;-79
2022/04/13 08:28:45;;;;;;;6.13;1.00;;;16.80;99.90;;;;;;5071601;28;20052;-76
2022/04/13 08:31:13;;;;;;;4.38;0.82;;;16.80;99.90;;;;;;5074253;28;20515;-76
2022/04/13 08:33:40;;;;;;;2.85;0.85;;;16.80;99.90;;;;;;5074601;28;20039;-76
2022/04/13 08:36:07;;;;;;;2.55;0.47;;;16.80;99.90;;;;;;5051048;23;20516;-75
2022/04/13 08:38:36;;;;;;;4.00;0.70;;;16.70;99.90;;;;;;5034175;28;20030;-76
2022/04/13 08:41:19;;;;;;;4.13;0.93;;;16.80;99.90;;;;;;5031392;28;20033;-77
2022/04/13 08:43:58;;;;;;;4.78;1.33;;;16.80;99.90;;;;;;5034945;28;20112;-77
2022/04/13 08:46:27;;;;;;;3.17;0.80;;;16.80;99.90;;;;;;5028065;28;20034;-77
2022/04/13 08:48:56;;;;;;;3.25;0.75;;;16.70;99.90;;;;;;5032865;28;20044;-77
2022/04/13 08:51:25;;;;;;;3.20;1.13;;;16.90;99.90;;;;;;5062692;23;20052;-77
2022/04/13 08:54:06;;;;;;;5.07;1.00;;;16.90;99.90;;;;;;5076681;28;20374;-78
2022/04/13 08:56:36;;;;;;;3.25;0.70;;;16.90;99.90;;;;;;5078139;28;20031;-77
2022/04/13 08:59:26;;;;;;;4.18;1.25;;;16.90;99.90;;;;;;5072178;28;20119;-77
2022/04/13 09:02:15;;;;;;;4.88;1.77;;;16.80;99.90;;;;;;5070404;28;20027;-78
2022/04/13 09:04:45;;;;;;;3.85;1.20;;;16.70;99.90;;;;;;5089928;28;20028;-78
2022/04/13 09:07:14;;;;;;;5.25;1.05;;;16.80;99.90;;;;;;5093044;28;20445;-78
2022/04/13 09:09:54;;;;;;;2.83;1.05;;;16.80;99.90;;;;;;5076667;28;20021;-77
2022/04/13 09:12:22;;;;;;;2.95;1.38;;;16.80;99.90;;;;;;5085963;28;20085;-78
2022/04/13 09:14:50;;;;;;;3.00;1.02;;;16.80;99.90;;;;;;5105744;28;20384;-77
2022/04/13 09:17:18;;;;;;;6.25;1.85;;;16.80;99.90;;;;;;5076587;28;20085;-77
2022/04/13 09:19:46;;;;;;;3.08;1.42;;;16.90;99.90;;;;;;5091589;28;20032;-78
2022/04/13 09:22:18;;;;;;;3.33;1.20;;;16.80;99.90;;;;;;5094968;28;20039;-77
2022/04/13 09:24:47;;;;;;;3.47;1.38;;;16.70;99.90;;;;;;5051552;22;20076;-78
2022/04/13 09:27:15;;;;;;;3.80;1.30;;;16.70;99.90;;;;;;5018560;28;20029;-78
2022/04/13 09:29:42;;;;;;;8.75;3.47;;;16.60;99.90;;;;;;5015441;28;20045;-77
2022/04/13 09:32:10;;;;;;;4.93;1.73;;;16.60;99.90;;;;;;5012707;28;20152;-77
2022/04/13 09:34:37;;;;;;;4.07;1.67;;;16.70;99.90;;;;;;5016136;28;20036;-77
2022/04/13 09:37:05;;;;;;;4.32;2.00;;;16.50;99.90;;;;;;5013538;28;20034;-77
2022/04/13 09:39:33;;;;;;;9.02;2.10;;;16.50;99.90;;;;;;5012106;28;20034;-77
2022/04/13 09:42:05;;;;;;;6.65;1.90;;;16.50;99.90;;;;;;5014331;28;20092;-77
2022/04/13 09:44:33;;;;;;;5.75;2.85;;;16.50;99.90;;;;;;5011000;28;20030;-76
2022/04/13 09:47:12;;;;;;;3.55;2.30;;;16.50;99.90;;;;;;5005809;28;20088;-76
2022/04/13 09:49:46;;;;;;;6.80;2.05;;;16.50;99.90;;;;;;5004748;28;20026;-76
2022/04/13 09:52:18;;;;;;;5.70;2.03;;;16.50;99.90;;;;;;5013190;28;20441;-76
2022/04/13 09:54:52;;;;;;;5.85;1.88;;;16.50;99.90;;;;;;5009755;28;20065;-76
2022/04/13 09:57:23;;;;;;;3.05;1.70;;;16.40;99.90;;;;;;4982663;28;20048;-76
2022/04/13 10:00:04;;;;;;;5.07;1.67;;;16.50;99.90;;;;;;4994004;28;20034;-76
2022/04/13 10:02:37;;;;;;;9.43;2.25;;;16.40;99.90;;;;;;4990762;28;20494;-76
2022/04/13 10:05:22;;;;;;;3.42;1.85;;;16.50;99.90;;;;;;4994484;28;20069;-76
2022/04/13 10:08:09;;;;;;;5.13;1.80;;;16.40;99.90;;;;;;4994027;28;20081;-76
2022/04/13 10:10:45;;;;;;;5.55;2.03;;;16.40;99.90;;;;;;4990791;28;20406;-76
2022/04/13 10:13:30;;;;;;;4.65;1.75;;;16.40;99.90;;;;;;4993630;28;20118;-77
2022/04/13 10:16:00;;;;;;;5.20;1.42;;;16.40;99.90;;;;;;4983508;28;20023;-78
2022/04/13 10:18:28;;;;;;;4.75;1.77;;;16.40;99.90;;;;;;4976451;28;20033;-77
2022/04/13 10:20:55;;;;;;;6.10;1.65;;;16.40;99.90;;;;;;4976797;28;20046;-78
2022/04/13 10:23:22;;;;;;;4.68;1.65;;;16.40;99.90;;;;;;4994639;28;20034;-77
2022/04/13 10:26:11;;;;;;;7.43;1.33;;;16.50;99.90;;;;;;5072930;22;20188;-78
2022/04/13 10:28:56;;;;;;;7.35;1.55;;;16.50;99.90;;;;;;5065425;22;20110;-77
2022/04/13 10:31:26;;;;;;;3.80;1.15;;;16.40;99.90;;;;;;5065509;28;20056;-77
2022/04/13 10:33:53;;;;;;;5.95;1.55;;;16.40;99.90;;;;;;5043016;23;20051;-78
2022/04/13 10:36:21;;;;;;;7.53;1.70;;;16.50;99.90;;;;;;5042473;28;20100;-78
2022/04/13 10:38:49;;;;;;;4.47;1.13;;;16.50;99.90;;;;;;5053257;28;20087;-79
2022/04/13 10:41:30;;;;;;;;;;;;;;;;;;;;;
2022/04/13 10:43:50;;;;;;;5.28;1.23;;;16.60;99.90;;;;;;5101559;22;20050;-78
2022/04/13 10:46:26;;;;;;;5.13;1.20;;;16.70;99.90;;;;;;5004797;28;20033;-78
2022/04/13 10:49:02;;;;;;;3.17;1.27;;;16.80;99.90;;;;;;5021884;28;20069;-77
2022/04/13 10:51:31;;;;;;;6.68;2.10;;;16.80;99.90;;;;;;5016836;28;20017;-76
2022/04/13 10:54:08;;;;;;;6.75;1.65;;;16.80;99.90;;;;;;4987907;28;20027;-78
2022/04/13 10:56:42;;;;;;;6.45;1.33;;;16.70;99.90;;;;;;4995087;28;20027;-76
2022/04/13 10:59:27;;;;;;;;;;;16.60;99.90;;;;;;5002945;28;20037;-76
2022/04/13 11:02:11;;;;;;;10.00;2.43;;;16.60;99.90;;;;;;4995400;28;19914;-75
2022/04/13 11:04:39;;;;;;;5.05;1.45;;;16.50;99.90;;;;;;5004431;28;20026;-76
2022/04/13 11:07:07;;;;;;;5.22;1.35;;;16.50;99.90;;;;;;5013856;28;20394;-76
2022/04/13 11:09:43;;;;;;;3.80;1.00;;;16.40;99.90;;;;;;5011414;28;20030;-76
2022/04/13 11:12:11;;;;;;;6.90;1.38;;;16.40;99.90;;;;;;5008943;28;20088;-76
2022/04/13 11:14:54;;;;;;;4.50;1.40;;;16.50;99.90;;;;;;5018129;28;20026;-76
2022/04/13 11:17:21;;;;;;;5.15;1.77;;;16.50;99.90;;;;;;5008447;28;20058;-76
2022/04/13 11:19:49;;;;;;;6.70;1.75;;;16.50;99.90;;;;;;5008606;28;20036;-77
2022/04/13 11:22:20;;;;;;;6.47;1.13;;;16.50;99.90;;;;;;5005895;28;20045;-76
2022/04/13 11:24:48;;;;;;;4.78;1.10;;;16.40;99.90;;;;;;5005528;28;20044;-77
2022/04/13 11:27:16;;;;;;;3.60;1.10;;;16.40;99.90;;;;;;5009393;28;20021;-77
2022/04/13 11:30:03;;;;;;;2.55;1.10;;;16.30;99.90;;;;;;5012561;28;20046;-77
2022/04/13 11:32:39;;;;;;;4.07;1.55;;;16.30;99.90;;;;;;5017969;28;20022;-78
2022/04/13 11:35:07;;;;;;;3.75;1.05;;;16.40;99.90;;;;;;5033684;23;20056;-79
2022/04/13 11:37:37;;;;;;;4.25;1.45;;;16.50;99.90;;;;;;5032398;28;20378;-77
2022/04/13 11:40:07;;;;;;;4.30;1.50;;;16.40;99.90;;;;;;5035778;28;20025;-77
2022/04/13 11:42:40;;;;;;;2.92;1.25;;;16.40;99.90;;;;;;5036282;28;20389;-77
2022/04/13 11:45:14;;;;;;;3.40;1.13;;;16.40;99.90;;;;;;5030511;28;20056;-77
2022/04/13 11:50:44;;;;;;;3.38;1.67;;;16.30;99.90;;;;;;5048890;28;20025;-76
2022/04/13 11:53:19;;;;;;;5.13;1.67;;;16.40;99.90;;;;;;5062074;28;20063;-77
2022/04/13 11:55:47;;;;;;;6.40;1.92;;;16.40;99.90;;;;;;5051937;28;20025;-76
2022/04/13 11:58:22;;;;;;;4.50;1.58;;;16.40;99.90;;;;;;5055234;28;20025;-76
2022/04/13 12:01:11;;;;;;;4.32;2.05;;;16.20;99.90;;;;;;5052367;28;20110;-76
2022/04/13 12:03:42;;;;;;;3.80;2.13;;;16.10;99.90;;;;;;5050599;28;20056;-76
2022/04/13 12:06:12;;;;;;;5.60;2.40;;;16.00;99.90;;;;;;5053664;28;20025;-77
2022/04/13 12:08:42;;;;;;;7.97;1.80;;;16.10;99.90;;;;;;5054854;23;20050;-75
2022/04/13 12:11:10;;;;;;;4.68;2.38;;;16.00;99.90;;;;;;5017635;28;20030;-76
2022/04/13 12:13:48;;;;;;;5.20;2.22;;;16.00;99.90;;;;;;5034160;28;20045;-76
2022/04/13 12:16:39;;;;;;;5.60;1.95;;;16.00;99.90;;;;;;5033463;28;20481;-76
2022/04/13 12:19:13;;;;;;;3.25;2.03;;;15.90;99.90;;;;;;5004036;28;20052;-76
2022/04/13 12:21:42;;;;;;;4.40;2.92;;;16.00;99.90;;;;;;5031770;28;20021;-77
2022/04/13 12:24:13;;;;;;;3.38;2.05;;;16.00;99.90;;;;;;5037096;28;20021;-76
2022/04/13 12:26:44;;;;;;;5.53;2.70;;;16.00;99.90;;;;;;5039610;28;20413;-76
2022/04/13 12:29:15;;;;;;;3.85;2.08;;;15.90;99.90;;;;;;5033487;28;20026;-76
2022/04/13 12:31:56;;;;;;;3.80;1.90;;;16.00;99.90;;;;;;5038387;28;20104;-76
2022/04/13 12:34:26;;;;;;;5.15;2.83;;;16.00;99.90;;;;;;5017729;28;20030;-76
2022/04/13 12:36:59;;;;;;;7.47;2.80;;;16.00;99.90;;;;;;5034895;28;20033;-76
2022/04/13 12:39:33;;;;;;;4.07;2.80;;;15.90;99.90;;;;;;5026875;28;20036;-77
2022/04/13 12:42:04;;;;;;;8.20;3.45;;;15.90;99.90;;;;;;5016484;28;20037;-77
2022/04/13 12:44:32;;;;;;;3.83;2.90;;;15.90;99.90;;;;;;5037295;28;20026;-76
2022/04/13 12:47:06;;;;;;;4.38;3.03;;;15.90;99.90;;;;;;5030440;28;20371;-76
2022/04/13 12:49:37;;;;;;;6.07;2.80;;;15.90;99.90;;;;;;5040515;28;20021;-76
2022/04/13 12:52:07;;;;;;;5.00;3.05;;;16.00;99.90;;;;;;5037953;28;20060;-76
2022/04/13 12:54:37;;;;;;;6.85;3.15;;;16.00;99.90;;;;;;5045538;28;20017;-76
2022/04/13 12:57:05;;;;;;;5.88;3.17;;;15.90;99.90;;;;;;5029288;28;20096;-76
2022/04/13 12:59:34;;;;;;;7.50;3.70;;;15.90;99.90;;;;;;5034444;28;20455;-76
2022/04/13 13:02:02;;;;;;;8.45;3.55;;;15.90;99.90;;;;;;5035123;28;20050;-76
2022/04/13 13:04:45;;;;;;;4.15;3.05;;;15.90;99.90;;;;;;5013566;28;20504;-76